sensor_id;sensor_type;location;lat;lon;timestamp;P1;durP1;ratioP1;P2;durP2;ratioP2
86205;SDS011;76857;48.140;11.594;2024-02-26T05:02:35;1.90;;;0.93;;
86205;SDS011;76857;48.140;11.594;2024-02-26T05:05:04;1.63;;;0.93;;
86205;SDS011;76857;48.140;11.594;2024-02-26T05:07:30;2.35;;;0.90;;
86205;SDS011;76857;48.140;11.594;2024-02-26T05:09:55;1.60;;;1.10;;
86205;SDS011;76857;48.140;11.594;2024-02-26T05:12:21;2.20;;;1.13;;
86205;SDS011;76857;48.140;11.594;2024-02-26T05:14:46;2.22;;;0.93;;
86205;SDS011;76857;48.140;11.594;2024-02-26T05:17:12;1.87;;;1.00;;
86205;SDS011;76857;48.140;11.594;2024-02-26T05:19:37;1.90;;;1.03;;
86205;SDS011;76857;48.140;11.594;2024-02-26T05:22:02;1.70;;;0.85;;
86205;SDS011;76857;48.140;11.594;2024-02-26T05:24:28;1.67;;;1.00;;
86205;SDS011;76857;48.140;11.594;2024-02-26T05:26:53;1.73;;;0.93;;
86205;SDS011;76857;48.140;11.594;2024-02-26T05:29:22;3.60;;;1.13;;
86205;SDS011;76857;48.140;11.594;2024-02-26T05:31:47;2.53;;;1.17;;
86205;SDS011;76857;48.140;11.594;2024-02-26T05:34:12;2.33;;;1.00;;
86205;SDS011;76857;48.140;11.594;2024-02-26T05:36:38;2.60;;;1.20;;
86205;SDS011;76857;48.140;11.594;2024-02-26T05:39:04;2.88;;;1.10;;
86205;SDS011;76857;48.140;11.594;2024-02-26T05:41:29;2.70;;;1.05;;
86205;SDS011;76857;48.140;11.594;2024-02-26T05:43:55;2.10;;;1.00;;
86205;SDS011;76857;48.140;11.594;2024-02-26T05:46:21;1.73;;;1.08;;
86205;SDS011;76857;48.140;11.594;2024-02-26T05:48:47;1.77;;;0.90;;
86205;SDS011;76857;48.140;11.594;2024-02-26T05:51:13;1.83;;;0.93;;
86205;SDS011;76857;48.140;11.594;2024-02-26T05:53:39;2.00;;;1.08;;
86205;SDS011;76857;48.140;11.594;2024-02-26T05:56:05;1.92;;;1.02;;
86205;SDS011;76857;48.140;11.594;2024-02-26T05:58:31;1.75;;;0.98;;
86205;SDS011;76857;48.140;11.594;2024-02-26T06:00:56;1.90;;;0.98;;
86205;SDS011;76857;48.140;11.594;2024-02-26T06:03:22;2.88;;;1.27;;
86205;SDS011;76857;48.140;11.594;2024-02-26T06:05:47;1.87;;;1.30;;
86205;SDS011;76857;48.140;11.594;2024-02-26T06:08:13;3.60;;;1.33;;
86205;SDS011;76857;48.140;11.594;2024-02-26T06:10:38;2.55;;;1.27;;
86205;SDS011;76857;48.140;11.594;2024-02-26T06:13:04;2.90;;;1.23;;
86205;SDS011;76857;48.140;11.594;2024-02-26T06:15:30;2.45;;;1.10;;
86205;SDS011;76857;48.140;11.594;2024-02-26T06:17:55;2.75;;;1.38;;
86205;SDS011;76857;48.140;11.594;2024-02-26T06:20:21;3.35;;;1.20;;
86205;SDS011;76857;48.140;11.594;2024-02-26T06:22:46;3.95;;;1.27;;
86205;SDS011;76857;48.140;11.594;2024-02-26T06:25:11;2.67;;;1.13;;
86205;SDS011;76857;48.140;11.594;2024-02-26T06:27:37;2.97;;;1.20;;
86205;SDS011;76857;48.140;11.594;2024-02-26T06:30:02;2.13;;;1.08;;
86205;SDS011;76857;48.140;11.594;2024-02-26T06:32:28;1.88;;;1.00;;
86205;SDS011;76857;48.140;11.594;2024-02-26T06:34:54;1.85;;;1.33;;
86205;SDS011;76857;48.140;11.594;2024-02-26T06:37:20;4.93;;;1.50;;
86205;SDS011;76857;48.140;11.594;2024-02-26T06:39:45;2.40;;;1.50;;
86205;SDS011;76857;48.140;11.594;2024-02-26T06:42:11;2.63;;;1.42;;
86205;SDS011;76857;48.140;11.594;2024-02-26T06:44:36;5.53;;;1.30;;
86205;SDS011;76857;48.140;11.594;2024-02-26T06:47:01;2.95;;;1.30;;
86205;SDS011;76857;48.140;11.594;2024-02-26T06:49:27;2.30;;;1.35;;
86205;SDS011;76857;48.140;11.594;2024-02-26T06:51:53;2.20;;;1.20;;
86205;SDS011;76857;48.140;11.594;2024-02-26T06:54:19;2.83;;;1.40;;
86205;SDS011;76857;48.140;11.594;2024-02-26T06:56:44;2.35;;;1.27;;
86205;SDS011;76857;48.140;11.594;2024-02-26T06:59:10;2.22;;;1.30;;
86205;SDS011;76857;48.140;11.594;2024-02-26T07:01:35;2.50;;;1.40;;
86205;SDS011;76857;48.140;11.594;2024-02-26T07:04:01;4.43;;;1.35;;
86205;SDS011;76857;48.140;11.594;2024-02-26T07:06:29;6.07;;;1.40;;
86205;SDS011;76857;48.140;11.594;2024-02-26T07:08:54;2.83;;;1.50;;
86205;SDS011;76857;48.140;11.594;2024-02-26T07:11:20;5.20;;;1.40;;
86205;SDS011;76857;48.140;11.594;2024-02-26T07:13:46;3.65;;;1.70;;
86205;SDS011;76857;48.140;11.594;2024-02-26T07:16:11;3.67;;;1.83;;
86205;SDS011;76857;48.140;11.594;2024-02-26T07:18:37;3.47;;;1.63;;
86205;SDS011;76857;48.140;11.594;2024-02-26T07:21:04;8.27;;;1.88;;
86205;SDS011;76857;48.140;11.594;2024-02-26T07:23:29;3.08;;;1.58;;
86205;SDS011;76857;48.140;11.594;2024-02-26T07:25:55;4.03;;;2.03;;
86205;SDS011;76857;48.140;11.594;2024-02-26T07:28:20;3.72;;;1.83;;
86205;SDS011;76857;48.140;11.594;2024-02-26T07:30:46;6.80;;;1.50;;
86205;SDS011;76857;48.140;11.594;2024-02-26T07:33:11;3.65;;;1.30;;
86205;SDS011;76857;48.140;11.594;2024-02-26T07:35:37;5.22;;;1.80;;
86205;SDS011;76857;48.140;11.594;2024-02-26T07:38:04;3.53;;;2.03;;
86205;SDS011;76857;48.140;11.594;2024-02-26T07:40:30;3.97;;;2.13;;
86205;SDS011;76857;48.140;11.594;2024-02-26T07:42:55;4.43;;;1.70;;
86205;SDS011;76857;48.140;11.594;2024-02-26T07:45:21;3.53;;;1.67;;
86205;SDS011;76857;48.140;11.594;2024-02-26T07:47:46;2.70;;;1.90;;
86205;SDS011;76857;48.140;11.594;2024-02-26T07:50:12;4.80;;;1.50;;
86205;SDS011;76857;48.140;11.594;2024-02-26T07:52:37;8.98;;;2.42;;
86205;SDS011;76857;48.140;11.594;2024-02-26T07:55:03;2.83;;;1.50;;
86205;SDS011;76857;48.140;11.594;2024-02-26T07:57:29;5.75;;;2.10;;
86205;SDS011;76857;48.140;11.594;2024-02-26T07:59:55;3.05;;;1.48;;
86205;SDS011;76857;48.140;11.594;2024-02-26T08:02:21;3.90;;;1.40;;
86205;SDS011;76857;48.140;11.594;2024-02-26T08:04:47;3.38;;;1.75;;
86205;SDS011;76857;48.140;11.594;2024-02-26T08:07:12;4.50;;;1.70;;
86205;SDS011;76857;48.140;11.594;2024-02-26T08:09:37;6.13;;;1.65;;
86205;SDS011;76857;48.140;11.594;2024-02-26T08:12:03;5.18;;;2.00;;
86205;SDS011;76857;48.140;11.594;2024-02-26T08:14:29;4.22;;;1.90;;
86205;SDS011;76857;48.140;11.594;2024-02-26T08:16:54;6.07;;;2.23;;
86205;SDS011;76857;48.140;11.594;2024-02-26T08:19:19;5.75;;;2.00;;
86205;SDS011;76857;48.140;11.594;2024-02-26T08:21:45;3.97;;;2.05;;
86205;SDS011;76857;48.140;11.594;2024-02-26T08:24:10;4.80;;;1.65;;
86205;SDS011;76857;48.140;11.594;2024-02-26T08:26:36;4.50;;;1.98;;
86205;SDS011;76857;48.140;11.594;2024-02-26T08:29:01;3.35;;;1.58;;
86205;SDS011;76857;48.140;11.594;2024-02-26T08:31:27;4.22;;;1.65;;
86205;SDS011;76857;48.140;11.594;2024-02-26T08:33:53;4.70;;;2.10;;
86205;SDS011;76857;48.140;11.594;2024-02-26T08:36:18;3.28;;;1.80;;
86205;SDS011;76857;48.140;11.594;2024-02-26T08:38:43;4.45;;;1.65;;
86205;SDS011;76857;48.140;11.594;2024-02-26T08:41:09;4.47;;;1.40;;
86205;SDS011;76857;48.140;11.594;2024-02-26T08:43:35;4.38;;;1.45;;
86205;SDS011;76857;48.140;11.594;2024-02-26T08:46:00;3.88;;;1.63;;
86205;SDS011;76857;48.140;11.594;2024-02-26T08:48:26;3.83;;;1.67;;
86205;SDS011;76857;48.140;11.594;2024-02-26T08:50:51;3.58;;;1.52;;
86205;SDS011;76857;48.140;11.594;2024-02-26T08:53:16;15.13;;;2.70;;
86205;SDS011;76857;48.140;11.594;2024-02-26T08:55:42;3.20;;;1.42;;
86205;SDS011;76857;48.140;11.594;2024-02-26T08:58:07;4.13;;;1.63;;
86205;SDS011;76857;48.140;11.594;2024-02-26T09:00:33;12.77;;;2.90;;
86205;SDS011;76857;48.140;11.594;2024-02-26T09:02:58;5.17;;;1.50;;
86205;SDS011;76857;48.140;11.594;2024-02-26T09:05:24;2.75;;;1.52;;
86205;SDS011;76857;48.140;11.594;2024-02-26T09:07:49;8.02;;;1.60;;
86205;SDS011;76857;48.140;11.594;2024-02-26T09:10:16;3.03;;;1.48;;
86205;SDS011;76857;48.140;11.594;2024-02-26T09:12:42;5.22;;;1.70;;
86205;SDS011;76857;48.140;11.594;2024-02-26T09:15:07;3.75;;;1.40;;
86205;SDS011;76857;48.140;11.594;2024-02-26T09:17:33;4.38;;;1.60;;
86205;SDS011;76857;48.140;11.594;2024-02-26T09:19:58;3.53;;;1.60;;
86205;SDS011;76857;48.140;11.594;2024-02-26T09:22:24;4.97;;;1.92;;
86205;SDS011;76857;48.140;11.594;2024-02-26T09:24:49;4.70;;;1.70;;
86205;SDS011;76857;48.140;11.594;2024-02-26T09:27:16;6.70;;;1.70;;
86205;SDS011;76857;48.140;11.594;2024-02-26T09:29:42;5.20;;;2.13;;
86205;SDS011;76857;48.140;11.594;2024-02-26T09:32:07;5.35;;;1.70;;
86205;SDS011;76857;48.140;11.594;2024-02-26T09:34:33;6.25;;;1.77;;
86205;SDS011;76857;48.140;11.594;2024-02-26T09:36:59;4.07;;;1.50;;
86205;SDS011;76857;48.140;11.594;2024-02-26T09:39:25;6.00;;;2.00;;
86205;SDS011;76857;48.140;11.594;2024-02-26T09:41:50;4.50;;;1.88;;
86205;SDS011;76857;48.140;11.594;2024-02-26T09:44:18;4.90;;;1.80;;
86205;SDS011;76857;48.140;11.594;2024-02-26T09:46:47;4.93;;;1.67;;
86205;SDS011;76857;48.140;11.594;2024-02-26T09:49:15;4.47;;;2.00;;
86205;SDS011;76857;48.140;11.594;2024-02-26T09:51:41;4.80;;;1.73;;
86205;SDS011;76857;48.140;11.594;2024-02-26T09:54:07;4.05;;;1.73;;
86205;SDS011;76857;48.140;11.594;2024-02-26T09:56:35;3.35;;;1.60;;
86205;SDS011;76857;48.140;11.594;2024-02-26T10:01:31;6.68;;;1.92;;
86205;SDS011;76857;48.140;11.594;2024-02-26T10:03:59;3.42;;;2.00;;
86205;SDS011;76857;48.140;11.594;2024-02-26T10:06:28;3.35;;;2.00;;
86205;SDS011;76857;48.140;11.594;2024-02-26T10:08:57;2.47;;;1.30;;
86205;SDS011;76857;48.140;11.594;2024-02-26T10:11:23;4.03;;;1.23;;
86205;SDS011;76857;48.140;11.594;2024-02-26T10:13:49;2.08;;;1.30;;
86205;SDS011;76857;48.140;11.594;2024-02-26T10:16:14;3.00;;;1.50;;
86205;SDS011;76857;48.140;11.594;2024-02-26T10:18:59;7.10;;;1.48;;
86205;SDS011;76857;48.140;11.594;2024-02-26T10:21:24;2.35;;;1.20;;
86205;SDS011;76857;48.140;11.594;2024-02-26T10:23:50;4.07;;;1.50;;
86205;SDS011;76857;48.140;11.594;2024-02-26T10:26:16;3.05;;;1.10;;
86205;SDS011;76857;48.140;11.594;2024-02-26T10:28:42;2.65;;;1.30;;
86205;SDS011;76857;48.140;11.594;2024-02-26T10:31:09;2.63;;;1.50;;
86205;SDS011;76857;48.140;11.594;2024-02-26T10:33:35;2.38;;;1.05;;
86205;SDS011;76857;48.140;11.594;2024-02-26T10:38:30;1.85;;;1.05;;
86205;SDS011;76857;48.140;11.594;2024-02-26T10:40:57;3.28;;;1.00;;
86205;SDS011;76857;48.140;11.594;2024-02-26T10:43:22;3.05;;;0.98;;
86205;SDS011;76857;48.140;11.594;2024-02-26T10:45:47;1.63;;;0.90;;
86205;SDS011;76857;48.140;11.594;2024-02-26T10:48:13;1.50;;;1.00;;
86205;SDS011;76857;48.140;11.594;2024-02-26T10:50:40;2.58;;;1.02;;
86205;SDS011;76857;48.140;11.594;2024-02-26T10:53:09;2.33;;;0.95;;
86205;SDS011;76857;48.140;11.594;2024-02-26T10:58:06;1.70;;;0.90;;
86205;SDS011;76857;48.140;11.594;2024-02-26T11:00:34;1.88;;;0.98;;
86205;SDS011;76857;48.140;11.594;2024-02-26T11:03:01;2.70;;;0.80;;
86205;SDS011;76857;48.140;11.594;2024-02-26T11:05:30;5.18;;;2.53;;
86205;SDS011;76857;48.140;11.594;2024-02-26T11:07:58;1.60;;;0.80;;
86205;SDS011;76857;48.140;11.594;2024-02-26T11:10:25;1.67;;;0.90;;
86205;SDS011;76857;48.140;11.594;2024-02-26T11:12:55;2.55;;;0.90;;
86205;SDS011;76857;48.140;11.594;2024-02-26T11:15:21;1.52;;;0.70;;
86205;SDS011;76857;48.140;11.594;2024-02-26T11:17:48;2.13;;;0.82;;
86205;SDS011;76857;48.140;11.594;2024-02-26T11:20:13;1.77;;;0.88;;
86205;SDS011;76857;48.140;11.594;2024-02-26T11:22:39;1.45;;;0.80;;
86205;SDS011;76857;48.140;11.594;2024-02-26T11:25:05;1.35;;;0.73;;
86205;SDS011;76857;48.140;11.594;2024-02-26T11:27:35;0.98;;;0.70;;
86205;SDS011;76857;48.140;11.594;2024-02-26T11:30:10;1.40;;;0.80;;
86205;SDS011;76857;48.140;11.594;2024-02-26T11:32:38;2.42;;;0.70;;
86205;SDS011;76857;48.140;11.594;2024-02-26T11:35:06;2.47;;;1.20;;
86205;SDS011;76857;48.140;11.594;2024-02-26T11:37:33;5.25;;;0.88;;
86205;SDS011;76857;48.140;11.594;2024-02-26T11:39:58;3.22;;;1.25;;
86205;SDS011;76857;48.140;11.594;2024-02-26T11:42:25;2.55;;;1.00;;
86205;SDS011;76857;48.140;11.594;2024-02-26T11:44:51;2.40;;;0.90;;
86205;SDS011;76857;48.140;11.594;2024-02-26T11:47:20;1.75;;;0.90;;
86205;SDS011;76857;48.140;11.594;2024-02-26T11:49:47;1.92;;;0.77;;
86205;SDS011;76857;48.140;11.594;2024-02-26T11:52:14;1.13;;;0.60;;
86205;SDS011;76857;48.140;11.594;2024-02-26T11:54:47;1.25;;;0.50;;
86205;SDS011;76857;48.140;11.594;2024-02-26T12:00:12;1.60;;;0.60;;
86205;SDS011;76857;48.140;11.594;2024-02-26T12:07:44;2.20;;;0.80;;
86205;SDS011;76857;48.140;11.594;2024-02-26T12:10:32;1.50;;;1.00;;
86205;SDS011;76857;48.140;11.594;2024-02-26T12:15:36;4.63;;;0.80;;
86205;SDS011;76857;48.140;11.594;2024-02-26T12:18:03;1.95;;;1.00;;
86205;SDS011;76857;48.140;11.594;2024-02-26T12:20:29;2.17;;;0.98;;
86205;SDS011;76857;48.140;11.594;2024-02-26T12:22:55;1.85;;;0.90;;
86205;SDS011;76857;48.140;11.594;2024-02-26T12:25:25;1.73;;;1.00;;
86205;SDS011;76857;48.140;11.594;2024-02-26T12:27:52;2.30;;;0.93;;
86205;SDS011;76857;48.140;11.594;2024-02-26T12:30:18;3.40;;;0.82;;
86205;SDS011;76857;48.140;11.594;2024-02-26T12:32:44;1.98;;;0.80;;
86205;SDS011;76857;48.140;11.594;2024-02-26T12:35:10;1.98;;;0.85;;
86205;SDS011;76857;48.140;11.594;2024-02-26T12:37:37;2.10;;;0.80;;
86205;SDS011;76857;48.140;11.594;2024-02-26T12:40:07;1.35;;;0.55;;
86205;SDS011;76857;48.140;11.594;2024-02-26T12:42:34;1.20;;;0.60;;
86205;SDS011;76857;48.140;11.594;2024-02-26T12:45:06;1.42;;;0.73;;
86205;SDS011;76857;48.140;11.594;2024-02-26T12:47:39;1.90;;;0.70;;
86205;SDS011;76857;48.140;11.594;2024-02-26T12:50:05;2.47;;;1.00;;
86205;SDS011;76857;48.140;11.594;2024-02-26T12:52:32;2.00;;;0.90;;
86205;SDS011;76857;48.140;11.594;2024-02-26T12:54:59;1.77;;;0.90;;
86205;SDS011;76857;48.140;11.594;2024-02-26T12:57:27;2.50;;;1.40;;
86205;SDS011;76857;48.140;11.594;2024-02-26T12:59:55;2.90;;;1.17;;
86205;SDS011;76857;48.140;11.594;2024-02-26T13:02:20;1.85;;;1.10;;
86205;SDS011;76857;48.140;11.594;2024-02-26T13:04:46;3.55;;;1.35;;
86205;SDS011;76857;48.140;11.594;2024-02-26T13:07:13;2.20;;;1.30;;
86205;SDS011;76857;48.140;11.594;2024-02-26T13:09:38;2.75;;;1.40;;
86205;SDS011;76857;48.140;11.594;2024-02-26T13:12:05;3.78;;;1.80;;
86205;SDS011;76857;48.140;11.594;2024-02-26T13:14:31;2.53;;;1.50;;
86205;SDS011;76857;48.140;11.594;2024-02-26T13:16:58;2.40;;;1.42;;
86205;SDS011;76857;48.140;11.594;2024-02-26T13:19:24;2.67;;;1.60;;
86205;SDS011;76857;48.140;11.594;2024-02-26T13:21:50;2.47;;;1.50;;
86205;SDS011;76857;48.140;11.594;2024-02-26T13:24:15;2.55;;;1.50;;
86205;SDS011;76857;48.140;11.594;2024-02-26T13:26:41;2.67;;;1.60;;
86205;SDS011;76857;48.140;11.594;2024-02-26T13:29:07;3.63;;;1.45;;
86205;SDS011;76857;48.140;11.594;2024-02-26T13:31:38;2.40;;;1.40;;
86205;SDS011;76857;48.140;11.594;2024-02-26T13:34:05;2.30;;;1.40;;
86205;SDS011;76857;48.140;11.594;2024-02-26T13:36:30;1.80;;;1.10;;
86205;SDS011;76857;48.140;11.594;2024-02-26T13:38:56;3.40;;;0.90;;
86205;SDS011;76857;48.140;11.594;2024-02-26T13:41:21;3.45;;;1.13;;
86205;SDS011;76857;48.140;11.594;2024-02-26T13:43:47;2.05;;;1.08;;
86205;SDS011;76857;48.140;11.594;2024-02-26T13:46:13;1.42;;;0.82;;
86205;SDS011;76857;48.140;11.594;2024-02-26T13:48:40;1.73;;;0.85;;
86205;SDS011;76857;48.140;11.594;2024-02-26T13:51:06;1.70;;;0.80;;
86205;SDS011;76857;48.140;11.594;2024-02-26T13:53:32;2.60;;;0.90;;
86205;SDS011;76857;48.140;11.594;2024-02-26T13:55:57;1.90;;;0.70;;
86205;SDS011;76857;48.140;11.594;2024-02-26T13:58:23;2.03;;;0.80;;
86205;SDS011;76857;48.140;11.594;2024-02-26T14:00:50;2.35;;;0.80;;
86205;SDS011;76857;48.140;11.594;2024-02-26T14:03:15;2.67;;;0.90;;
86205;SDS011;76857;48.140;11.594;2024-02-26T14:05:41;2.08;;;1.00;;
86205;SDS011;76857;48.140;11.594;2024-02-26T14:08:07;2.60;;;1.15;;
86205;SDS011;76857;48.140;11.594;2024-02-26T14:10:32;2.08;;;1.30;;
86205;SDS011;76857;48.140;11.594;2024-02-26T14:12:58;4.05;;;1.58;;
86205;SDS011;76857;48.140;11.594;2024-02-26T14:15:24;2.50;;;1.13;;
86205;SDS011;76857;48.140;11.594;2024-02-26T14:17:51;2.40;;;1.25;;
86205;SDS011;76857;48.140;11.594;2024-02-26T14:20:21;3.03;;;1.38;;
86205;SDS011;76857;48.140;11.594;2024-02-26T14:22:48;2.60;;;1.40;;
86205;SDS011;76857;48.140;11.594;2024-02-26T14:25:14;2.80;;;1.27;;
86205;SDS011;76857;48.140;11.594;2024-02-26T14:27:39;3.73;;;1.50;;
86205;SDS011;76857;48.140;11.594;2024-02-26T14:30:05;3.50;;;1.65;;
86205;SDS011;76857;48.140;11.594;2024-02-26T14:32:31;2.35;;;1.20;;
86205;SDS011;76857;48.140;11.594;2024-02-26T14:35:01;3.58;;;1.45;;
86205;SDS011;76857;48.140;11.594;2024-02-26T14:37:27;3.03;;;1.27;;
86205;SDS011;76857;48.140;11.594;2024-02-26T14:39:53;2.92;;;1.42;;
86205;SDS011;76857;48.140;11.594;2024-02-26T14:42:18;3.83;;;1.55;;
86205;SDS011;76857;48.140;11.594;2024-02-26T14:44:44;3.50;;;1.73;;
86205;SDS011;76857;48.140;11.594;2024-02-26T14:47:11;4.05;;;1.60;;
86205;SDS011;76857;48.140;11.594;2024-02-26T14:49:36;2.25;;;1.30;;
86205;SDS011;76857;48.140;11.594;2024-02-26T14:52:02;4.17;;;1.63;;
86205;SDS011;76857;48.140;11.594;2024-02-26T14:54:28;2.50;;;1.45;;
86205;SDS011;76857;48.140;11.594;2024-02-26T14:56:57;2.38;;;1.33;;
86205;SDS011;76857;48.140;11.594;2024-02-26T14:59:23;2.30;;;1.27;;
86205;SDS011;76857;48.140;11.594;2024-02-26T15:01:48;2.03;;;1.30;;
86205;SDS011;76857;48.140;11.594;2024-02-26T15:04:14;2.83;;;1.50;;
86205;SDS011;76857;48.140;11.594;2024-02-26T15:06:39;4.03;;;1.63;;
86205;SDS011;76857;48.140;11.594;2024-02-26T15:09:05;2.80;;;1.40;;
86205;SDS011;76857;48.140;11.594;2024-02-26T15:11:30;3.70;;;1.27;;
86205;SDS011;76857;48.140;11.594;2024-02-26T15:13:55;2.00;;;1.20;;
86205;SDS011;76857;48.140;11.594;2024-02-26T15:16:21;2.47;;;1.20;;
86205;SDS011;76857;48.140;11.594;2024-02-26T15:18:47;2.75;;;1.25;;
86205;SDS011;76857;48.140;11.594;2024-02-26T15:21:12;2.80;;;1.45;;
86205;SDS011;76857;48.140;11.594;2024-02-26T15:23:38;4.32;;;1.17;;
86205;SDS011;76857;48.140;11.594;2024-02-26T15:26:04;2.42;;;1.20;;
86205;SDS011;76857;48.140;11.594;2024-02-26T15:28:30;2.42;;;1.20;;
86205;SDS011;76857;48.140;11.594;2024-02-26T15:30:55;2.42;;;1.30;;
86205;SDS011;76857;48.140;11.594;2024-02-26T15:33:21;2.80;;;1.17;;
86205;SDS011;76857;48.140;11.594;2024-02-26T15:35:47;2.30;;;1.13;;
86205;SDS011;76857;48.140;11.594;2024-02-26T15:38:12;1.70;;;1.05;;
86205;SDS011;76857;48.140;11.594;2024-02-26T15:40:38;2.60;;;1.02;;
86205;SDS011;76857;48.140;11.594;2024-02-26T15:43:04;3.10;;;1.10;;
86205;SDS011;76857;48.140;11.594;2024-02-26T15:45:29;1.98;;;0.98;;
86205;SDS011;76857;48.140;11.594;2024-02-26T15:47:58;2.33;;;0.80;;
86205;SDS011;76857;48.140;11.594;2024-02-26T15:50:24;3.70;;;1.23;;
86205;SDS011;76857;48.140;11.594;2024-02-26T15:52:50;2.63;;;1.10;;
86205;SDS011;76857;48.140;11.594;2024-02-26T15:55:16;3.00;;;1.20;;
86205;SDS011;76857;48.140;11.594;2024-02-26T15:57:42;2.20;;;1.10;;
86205;SDS011;76857;48.140;11.594;2024-02-26T16:00:08;2.10;;;1.15;;
86205;SDS011;76857;48.140;11.594;2024-02-26T16:02:38;1.40;;;0.90;;
86205;SDS011;76857;48.140;11.594;2024-02-26T16:05:03;4.05;;;1.30;;
86205;SDS011;76857;48.140;11.594;2024-02-26T16:07:36;5.45;;;1.70;;
86205;SDS011;76857;48.140;11.594;2024-02-26T16:10:07;4.63;;;1.70;;
86205;SDS011;76857;48.140;11.594;2024-02-26T16:12:39;4.45;;;1.80;;
86205;SDS011;76857;48.140;11.594;2024-02-26T16:15:08;2.08;;;1.17;;
86205;SDS011;76857;48.140;11.594;2024-02-26T16:17:35;3.42;;;1.20;;
86205;SDS011;76857;48.140;11.594;2024-02-26T16:20:05;4.63;;;1.10;;
86205;SDS011;76857;48.140;11.594;2024-02-26T16:22:35;2.17;;;1.00;;
86205;SDS011;76857;48.140;11.594;2024-02-26T16:25:03;2.33;;;1.08;;
86205;SDS011;76857;48.140;11.594;2024-02-26T16:27:29;3.17;;;1.40;;
86205;SDS011;76857;48.140;11.594;2024-02-26T16:29:54;3.60;;;1.10;;
86205;SDS011;76857;48.140;11.594;2024-02-26T16:32:20;2.78;;;1.02;;
86205;SDS011;76857;48.140;11.594;2024-02-26T16:34:45;6.15;;;1.85;;
86205;SDS011;76857;48.140;11.594;2024-02-26T16:37:11;3.50;;;1.40;;
86205;SDS011;76857;48.140;11.594;2024-02-26T16:39:38;3.88;;;1.30;;
86205;SDS011;76857;48.140;11.594;2024-02-26T16:42:04;2.35;;;1.23;;
86205;SDS011;76857;48.140;11.594;2024-02-26T16:44:32;2.53;;;1.35;;
86205;SDS011;76857;48.140;11.594;2024-02-26T16:46:59;3.67;;;1.27;;
86205;SDS011;76857;48.140;11.594;2024-02-26T16:49:24;2.55;;;1.20;;
86205;SDS011;76857;48.140;11.594;2024-02-26T16:51:50;3.30;;;1.27;;
86205;SDS011;76857;48.140;11.594;2024-02-26T16:54:15;2.53;;;1.20;;
86205;SDS011;76857;48.140;11.594;2024-02-26T16:56:41;3.97;;;1.33;;
86205;SDS011;76857;48.140;11.594;2024-02-26T16:59:06;2.67;;;1.10;;
86205;SDS011;76857;48.140;11.594;2024-02-26T17:01:31;2.13;;;1.10;;
86205;SDS011;76857;48.140;11.594;2024-02-26T17:03:57;3.35;;;1.20;;
86205;SDS011;76857;48.140;11.594;2024-02-26T17:06:23;2.58;;;1.27;;
86205;SDS011;76857;48.140;11.594;2024-02-26T17:08:49;2.67;;;1.20;;
86205;SDS011;76857;48.140;11.594;2024-02-26T17:11:17;2.95;;;1.60;;
86205;SDS011;76857;48.140;11.594;2024-02-26T17:13:42;4.85;;;1.30;;
86205;SDS011;76857;48.140;11.594;2024-02-26T17:16:08;2.88;;;1.20;;
86205;SDS011;76857;48.140;11.594;2024-02-26T17:18:33;3.15;;;1.25;;
86205;SDS011;76857;48.140;11.594;2024-02-26T17:20:59;3.95;;;1.88;;
86205;SDS011;76857;48.140;11.594;2024-02-26T17:23:24;2.55;;;1.48;;
86205;SDS011;76857;48.140;11.594;2024-02-26T17:25:57;3.97;;;1.48;;
86205;SDS011;76857;48.140;11.594;2024-02-26T17:28:24;2.83;;;1.63;;
86205;SDS011;76857;48.140;11.594;2024-02-26T17:30:50;2.92;;;1.80;;
86205;SDS011;76857;48.140;11.594;2024-02-26T17:33:15;4.40;;;1.80;;
86205;SDS011;76857;48.140;11.594;2024-02-26T17:35:40;2.53;;;1.55;;
86205;SDS011;76857;48.140;11.594;2024-02-26T17:38:06;4.10;;;1.58;;
86205;SDS011;76857;48.140;11.594;2024-02-26T17:40:31;2.25;;;1.40;;
86205;SDS011;76857;48.140;11.594;2024-02-26T17:42:58;3.73;;;1.67;;
86205;SDS011;76857;48.140;11.594;2024-02-26T17:45:23;4.30;;;1.80;;
86205;SDS011;76857;48.140;11.594;2024-02-26T17:47:51;3.45;;;1.88;;
86205;SDS011;76857;48.140;11.594;2024-02-26T17:50:17;4.07;;;1.70;;
86205;SDS011;76857;48.140;11.594;2024-02-26T17:52:43;3.45;;;1.73;;
86205;SDS011;76857;48.140;11.594;2024-02-26T17:55:09;3.92;;;1.90;;
86205;SDS011;76857;48.140;11.594;2024-02-26T17:57:34;4.32;;;2.00;;
86205;SDS011;76857;48.140;11.594;2024-02-26T18:00:00;3.00;;;1.58;;
86205;SDS011;76857;48.140;11.594;2024-02-26T18:02:25;4.03;;;2.22;;
86205;SDS011;76857;48.140;11.594;2024-02-26T18:04:51;2.63;;;1.50;;
86205;SDS011;76857;48.140;11.594;2024-02-26T18:07:16;3.90;;;1.40;;
86205;SDS011;76857;48.140;11.594;2024-02-26T18:09:42;3.08;;;1.90;;
86205;SDS011;76857;48.140;11.594;2024-02-26T18:12:07;3.83;;;1.93;;
86205;SDS011;76857;48.140;11.594;2024-02-26T18:14:33;4.03;;;1.85;;
86205;SDS011;76857;48.140;11.594;2024-02-26T18:16:59;2.60;;;1.67;;
86205;SDS011;76857;48.140;11.594;2024-02-26T18:19:25;4.72;;;2.00;;
86205;SDS011;76857;48.140;11.594;2024-02-26T18:21:50;3.17;;;1.88;;
86205;SDS011;76857;48.140;11.594;2024-02-26T18:24:15;4.43;;;2.00;;
86205;SDS011;76857;48.140;11.594;2024-02-26T18:26:41;3.47;;;1.80;;
86205;SDS011;76857;48.140;11.594;2024-02-26T18:29:07;4.13;;;1.90;;
86205;SDS011;76857;48.140;11.594;2024-02-26T18:31:32;3.20;;;1.73;;
86205;SDS011;76857;48.140;11.594;2024-02-26T18:33:58;3.70;;;1.83;;
86205;SDS011;76857;48.140;11.594;2024-02-26T18:36:23;6.03;;;2.00;;
86205;SDS011;76857;48.140;11.594;2024-02-26T18:38:50;4.47;;;2.08;;
86205;SDS011;76857;48.140;11.594;2024-02-26T18:41:20;4.22;;;2.05;;
86205;SDS011;76857;48.140;11.594;2024-02-26T18:43:48;4.85;;;2.17;;
86205;SDS011;76857;48.140;11.594;2024-02-26T18:46:14;5.50;;;2.00;;
86205;SDS011;76857;48.140;11.594;2024-02-26T18:48:40;4.50;;;1.98;;
86205;SDS011;76857;48.140;11.594;2024-02-26T18:51:06;3.75;;;1.77;;
86205;SDS011;76857;48.140;11.594;2024-02-26T18:53:32;3.75;;;1.70;;
86205;SDS011;76857;48.140;11.594;2024-02-26T18:55:57;8.05;;;2.00;;
86205;SDS011;76857;48.140;11.594;2024-02-26T18:58:22;4.07;;;1.93;;
86205;SDS011;76857;48.140;11.594;2024-02-26T19:00:49;3.75;;;1.90;;
86205;SDS011;76857;48.140;11.594;2024-02-26T19:03:14;3.78;;;1.92;;
86205;SDS011;76857;48.140;11.594;2024-02-26T19:05:39;3.83;;;2.03;;
86205;SDS011;76857;48.140;11.594;2024-02-26T19:08:05;4.20;;;1.88;;
86205;SDS011;76857;48.140;11.594;2024-02-26T19:10:30;4.30;;;1.80;;
86205;SDS011;76857;48.140;11.594;2024-02-26T19:12:56;4.90;;;1.80;;
86205;SDS011;76857;48.140;11.594;2024-02-26T19:15:25;4.68;;;2.15;;
86205;SDS011;76857;48.140;11.594;2024-02-26T19:17:50;2.95;;;1.77;;
86205;SDS011;76857;48.140;11.594;2024-02-26T19:20:19;3.45;;;2.05;;
86205;SDS011;76857;48.140;11.594;2024-02-26T19:22:46;3.17;;;1.77;;
86205;SDS011;76857;48.140;11.594;2024-02-26T19:25:12;4.10;;;2.20;;
86205;SDS011;76857;48.140;11.594;2024-02-26T19:27:38;3.28;;;1.80;;
86205;SDS011;76857;48.140;11.594;2024-02-26T19:30:04;4.32;;;2.03;;
86205;SDS011;76857;48.140;11.594;2024-02-26T19:32:30;4.18;;;2.15;;
86205;SDS011;76857;48.140;11.594;2024-02-26T19:34:56;2.97;;;1.85;;
86205;SDS011;76857;48.140;11.594;2024-02-26T19:37:22;3.85;;;2.00;;
86205;SDS011;76857;48.140;11.594;2024-02-26T19:39:48;5.53;;;2.15;;
86205;SDS011;76857;48.140;11.594;2024-02-26T19:42:13;3.72;;;2.10;;
86205;SDS011;76857;48.140;11.594;2024-02-26T19:44:39;3.60;;;2.20;;
86205;SDS011;76857;48.140;11.594;2024-02-26T19:47:04;2.83;;;1.63;;